Terminal Aerodrome Forecast
Issued by NWS Charleston, WV

Current Version | Previous Version | Graphics & Text | Print | Product List | Glossary On
Versions: 1 2 3 4 5 6 7 8 9 10 11 12 13 14 15 16 17 18 19 20 21 22 23 24 25
764
FTUS41 KRLX 222340
TAFHTS
TAF
KHTS 222340Z 2300/2324 34006KT P6SM SCT070
     FM230400 02003KT P6SM SCT250
     FM230800 00000KT 6SM HZ SCT200
     FM230900 00000KT 4SM BR SCT250
     FM231200 00000KT 6SM BR SCT250
     FM231300 34003KT P6SM SCT250=

USA.gov is the U.S. government's official web portal to all federal, state and local government web resources and services.